首页
METAR-TAF:

METAR-TAF

机场 :

长岛麦克阿瑟机场

Islip, 紐約州, 美国

纬度: 40-47-38N, 经度: 073-06-06W, 海拔: 30米

当前天气观测

该预报发布于12分钟前的12:18 UTC
风速4节,风向西转西南
温度 4°C
湿度 100%
气压 1008 hPa
能見度: 16.1公里
多云层高于1800英尺
多云层高于16000英尺

METAR: KISP 191218Z 24004KT 10SM BKN018 BKN160 04/04 A2976 RMK AO2 T00440044

时间: 07:30 (12:30 UTC)

预报

该预报发布于1小时和3分钟前的11:27 UTC
预报有效从19日的 12点(UTC)到 20日的 12点(UTC)
风速5节,风向西转西北
能見度: 10公里
散云层高于1000英尺
多云层高于4000英尺
阴天层高于5000英尺
短暂存在
从 19日的 12点(UTC)到 19日的 14点(UTC)
能見度: 9.7公里
多云层高于500英尺
阴天层高于1000英尺
轻雾
从 19日的 1400点(UTC)
风速8节,风向西转西北
能見度: 10公里
散云层高于3000英尺
从 19日的 2300点(UTC)
风速4节,风向北转西北
能見度: 10公里
多云层高于4000英尺
多云层高于17000英尺
从 20日的 0400点(UTC)
风速4节,风向
能見度: 10公里
散云层高于2500英尺
多云层高于13000英尺
从 20日的 1000点(UTC)
风速7节,风向北转西北
能見度: 10公里
多云层高于3000英尺

TAF: KISP 191127Z 1912/2012 30005KT P6SM SCT010 BKN040 OVC050 TEMPO 1912/1914 6SM BR BKN005 OVC010 FM191400 29008KT P6SM SCT030 FM192300 33004KT P6SM BKN040 BKN170 FM200400 35004KT P6SM SCT025 BKN130 FM201000 34007KT P6SM BKN030

超过4000个机场的气象观测和天气预报(METAR&TAF报告)。

可查询的气象台以黄色和红色小点在地图上表示。

将鼠标移到小点上方,可查看气象台名称。

然后点击查看天气观测和预报。

如需切换地图:点击带黑十字的绿色按钮放大地图;点击带横线的绿色按钮缩小地图;或者点击绿色箭头查看邻近地区的地图。


METAR-TAF: